sensor_id;sensor_type;location;lat;lon;timestamp;P1;durP1;ratioP1;P2;durP2;ratioP2
57085;SDS011;42964;42.910;23.792;2024-01-30T00:01:37;26.77;;;12.82;;
57085;SDS011;42964;42.910;23.792;2024-01-30T00:06:36;31.67;;;13.88;;
57085;SDS011;42964;42.910;23.792;2024-01-30T00:11:35;21.13;;;12.20;;
57085;SDS011;42964;42.910;23.792;2024-01-30T00:16:34;20.20;;;11.45;;
57085;SDS011;42964;42.910;23.792;2024-01-30T00:21:32;26.15;;;11.60;;
57085;SDS011;42964;42.910;23.792;2024-01-30T00:26:31;19.92;;;12.70;;
57085;SDS011;42964;42.910;23.792;2024-01-30T00:31:31;21.48;;;12.30;;
57085;SDS011;42964;42.910;23.792;2024-01-30T00:36:30;22.33;;;11.85;;
57085;SDS011;42964;42.910;23.792;2024-01-30T00:41:29;22.90;;;11.73;;
57085;SDS011;42964;42.910;23.792;2024-01-30T00:46:28;25.10;;;13.65;;
57085;SDS011;42964;42.910;23.792;2024-01-30T00:51:27;21.05;;;12.50;;
57085;SDS011;42964;42.910;23.792;2024-01-30T00:56:28;28.75;;;12.77;;
57085;SDS011;42964;42.910;23.792;2024-01-30T01:01:27;23.08;;;12.30;;
57085;SDS011;42964;42.910;23.792;2024-01-30T01:06:26;28.92;;;13.10;;
57085;SDS011;42964;42.910;23.792;2024-01-30T01:11:25;23.27;;;12.52;;
57085;SDS011;42964;42.910;23.792;2024-01-30T01:16:24;26.98;;;14.13;;
57085;SDS011;42964;42.910;23.792;2024-01-30T01:21:23;24.67;;;12.18;;
57085;SDS011;42964;42.910;23.792;2024-01-30T01:26:22;22.70;;;11.82;;
57085;SDS011;42964;42.910;23.792;2024-01-30T01:31:21;18.33;;;10.55;;
57085;SDS011;42964;42.910;23.792;2024-01-30T01:36:24;23.80;;;13.32;;
57085;SDS011;42964;42.910;23.792;2024-01-30T01:41:23;33.17;;;17.77;;
57085;SDS011;42964;42.910;23.792;2024-01-30T01:46:22;27.80;;;15.95;;
57085;SDS011;42964;42.910;23.792;2024-01-30T01:51:22;49.45;;;21.75;;
57085;SDS011;42964;42.910;23.792;2024-01-30T01:56:23;26.27;;;15.73;;
57085;SDS011;42964;42.910;23.792;2024-01-30T02:01:22;18.73;;;12.02;;
57085;SDS011;42964;42.910;23.792;2024-01-30T02:06:23;34.15;;;18.30;;
57085;SDS011;42964;42.910;23.792;2024-01-30T02:16:22;18.10;;;11.60;;
57085;SDS011;42964;42.910;23.792;2024-01-30T02:21:21;19.35;;;12.52;;
57085;SDS011;42964;42.910;23.792;2024-01-30T02:26:20;21.48;;;13.52;;
57085;SDS011;42964;42.910;23.792;2024-01-30T02:31:19;23.45;;;13.65;;
57085;SDS011;42964;42.910;23.792;2024-01-30T02:36:18;22.08;;;12.82;;
57085;SDS011;42964;42.910;23.792;2024-01-30T02:41:17;20.10;;;12.68;;
57085;SDS011;42964;42.910;23.792;2024-01-30T02:46:16;18.65;;;12.18;;
57085;SDS011;42964;42.910;23.792;2024-01-30T02:51:16;21.10;;;13.75;;
57085;SDS011;42964;42.910;23.792;2024-01-30T02:56:15;28.90;;;21.25;;
57085;SDS011;42964;42.910;23.792;2024-01-30T03:01:14;21.25;;;13.75;;
57085;SDS011;42964;42.910;23.792;2024-01-30T03:06:13;21.88;;;12.70;;
57085;SDS011;42964;42.910;23.792;2024-01-30T03:11:16;19.08;;;11.70;;
57085;SDS011;42964;42.910;23.792;2024-01-30T03:16:14;18.73;;;12.85;;
57085;SDS011;42964;42.910;23.792;2024-01-30T03:21:13;17.20;;;11.98;;
57085;SDS011;42964;42.910;23.792;2024-01-30T03:26:13;21.33;;;14.20;;
57085;SDS011;42964;42.910;23.792;2024-01-30T03:31:14;20.65;;;14.48;;
57085;SDS011;42964;42.910;23.792;2024-01-30T03:36:15;19.77;;;13.02;;
57085;SDS011;42964;42.910;23.792;2024-01-30T03:41:14;28.48;;;16.65;;
57085;SDS011;42964;42.910;23.792;2024-01-30T03:46:13;22.42;;;13.95;;
57085;SDS011;42964;42.910;23.792;2024-01-30T03:51:12;19.88;;;14.32;;
57085;SDS011;42964;42.910;23.792;2024-01-30T03:56:13;18.88;;;12.85;;
57085;SDS011;42964;42.910;23.792;2024-01-30T04:01:13;21.38;;;12.63;;
57085;SDS011;42964;42.910;23.792;2024-01-30T04:06:13;21.33;;;12.38;;
57085;SDS011;42964;42.910;23.792;2024-01-30T04:11:12;22.15;;;13.55;;
57085;SDS011;42964;42.910;23.792;2024-01-30T04:16:18;21.05;;;14.00;;
57085;SDS011;42964;42.910;23.792;2024-01-30T04:21:20;18.23;;;13.13;;
57085;SDS011;42964;42.910;23.792;2024-01-30T04:26:20;18.77;;;12.90;;
57085;SDS011;42964;42.910;23.792;2024-01-30T04:31:19;22.20;;;13.38;;
57085;SDS011;42964;42.910;23.792;2024-01-30T04:36:18;21.23;;;13.32;;
57085;SDS011;42964;42.910;23.792;2024-01-30T04:41:17;20.48;;;13.45;;
57085;SDS011;42964;42.910;23.792;2024-01-30T04:46:15;23.30;;;14.00;;
57085;SDS011;42964;42.910;23.792;2024-01-30T04:51:14;23.90;;;14.32;;
57085;SDS011;42964;42.910;23.792;2024-01-30T04:56:13;26.52;;;15.20;;
57085;SDS011;42964;42.910;23.792;2024-01-30T05:01:16;87.85;;;45.15;;
57085;SDS011;42964;42.910;23.792;2024-01-30T05:06:28;64.40;;;30.73;;
57085;SDS011;42964;42.910;23.792;2024-01-30T05:11:27;39.00;;;20.45;;
57085;SDS011;42964;42.910;23.792;2024-01-30T05:16:26;25.48;;;14.13;;
57085;SDS011;42964;42.910;23.792;2024-01-30T05:21:25;23.13;;;14.43;;
57085;SDS011;42964;42.910;23.792;2024-01-30T05:26:24;21.23;;;12.98;;
57085;SDS011;42964;42.910;23.792;2024-01-30T05:31:23;25.33;;;15.95;;
57085;SDS011;42964;42.910;23.792;2024-01-30T05:36:21;25.00;;;14.00;;
57085;SDS011;42964;42.910;23.792;2024-01-30T05:41:20;30.13;;;17.25;;
57085;SDS011;42964;42.910;23.792;2024-01-30T05:46:19;35.47;;;18.75;;
57085;SDS011;42964;42.910;23.792;2024-01-30T05:51:18;28.73;;;17.63;;
57085;SDS011;42964;42.910;23.792;2024-01-30T05:56:17;25.55;;;14.38;;
57085;SDS011;42964;42.910;23.792;2024-01-30T06:01:16;24.60;;;15.18;;
57085;SDS011;42964;42.910;23.792;2024-01-30T06:06:15;31.70;;;15.63;;
57085;SDS011;42964;42.910;23.792;2024-01-30T06:11:14;22.80;;;14.30;;
57085;SDS011;42964;42.910;23.792;2024-01-30T06:16:13;22.17;;;13.05;;
57085;SDS011;42964;42.910;23.792;2024-01-30T06:21:13;22.00;;;12.30;;
57085;SDS011;42964;42.910;23.792;2024-01-30T06:26:12;19.40;;;11.50;;
57085;SDS011;42964;42.910;23.792;2024-01-30T06:31:11;28.45;;;16.40;;
57085;SDS011;42964;42.910;23.792;2024-01-30T06:36:10;37.92;;;19.65;;
57085;SDS011;42964;42.910;23.792;2024-01-30T06:41:09;28.67;;;16.80;;
57085;SDS011;42964;42.910;23.792;2024-01-30T06:46:07;24.83;;;15.57;;
57085;SDS011;42964;42.910;23.792;2024-01-30T06:51:07;28.63;;;15.43;;
57085;SDS011;42964;42.910;23.792;2024-01-30T06:56:06;28.05;;;16.27;;
57085;SDS011;42964;42.910;23.792;2024-01-30T07:01:05;33.65;;;17.98;;
57085;SDS011;42964;42.910;23.792;2024-01-30T07:06:05;29.45;;;17.10;;
57085;SDS011;42964;42.910;23.792;2024-01-30T07:11:07;23.52;;;14.05;;
57085;SDS011;42964;42.910;23.792;2024-01-30T07:16:06;31.95;;;15.98;;
57085;SDS011;42964;42.910;23.792;2024-01-30T07:21:05;26.98;;;15.13;;
57085;SDS011;42964;42.910;23.792;2024-01-30T07:26:04;37.13;;;17.83;;
57085;SDS011;42964;42.910;23.792;2024-01-30T07:31:05;36.72;;;17.30;;
57085;SDS011;42964;42.910;23.792;2024-01-30T07:36:05;29.52;;;17.15;;
57085;SDS011;42964;42.910;23.792;2024-01-30T07:46:03;21.50;;;12.20;;
57085;SDS011;42964;42.910;23.792;2024-01-30T07:56:02;21.92;;;12.75;;
57085;SDS011;42964;42.910;23.792;2024-01-30T08:01:01;23.15;;;14.23;;
57085;SDS011;42964;42.910;23.792;2024-01-30T08:06:01;18.02;;;11.65;;
57085;SDS011;42964;42.910;23.792;2024-01-30T08:11:00;16.73;;;11.85;;
57085;SDS011;42964;42.910;23.792;2024-01-30T08:15:59;16.38;;;10.82;;
57085;SDS011;42964;42.910;23.792;2024-01-30T08:20:58;17.52;;;11.45;;
57085;SDS011;42964;42.910;23.792;2024-01-30T08:25:57;16.92;;;10.65;;
57085;SDS011;42964;42.910;23.792;2024-01-30T08:30:56;32.97;;;24.50;;
57085;SDS011;42964;42.910;23.792;2024-01-30T08:35:55;16.95;;;11.25;;
57085;SDS011;42964;42.910;23.792;2024-01-30T08:40:55;14.77;;;11.27;;
57085;SDS011;42964;42.910;23.792;2024-01-30T08:45:55;18.17;;;11.25;;
57085;SDS011;42964;42.910;23.792;2024-01-30T08:50:55;13.85;;;9.60;;
57085;SDS011;42964;42.910;23.792;2024-01-30T08:55:55;11.75;;;8.60;;
57085;SDS011;42964;42.910;23.792;2024-01-30T09:00:54;12.18;;;9.10;;
57085;SDS011;42964;42.910;23.792;2024-01-30T09:05:53;12.95;;;7.35;;
57085;SDS011;42964;42.910;23.792;2024-01-30T09:10:52;12.65;;;8.88;;
57085;SDS011;42964;42.910;23.792;2024-01-30T09:15:51;12.65;;;8.75;;
57085;SDS011;42964;42.910;23.792;2024-01-30T09:25:50;11.38;;;8.40;;
57085;SDS011;42964;42.910;23.792;2024-01-30T09:30:49;11.85;;;7.75;;
57085;SDS011;42964;42.910;23.792;2024-01-30T09:35:48;10.40;;;6.55;;
57085;SDS011;42964;42.910;23.792;2024-01-30T09:40:49;11.07;;;7.93;;
57085;SDS011;42964;42.910;23.792;2024-01-30T09:45:53;9.25;;;7.20;;
57085;SDS011;42964;42.910;23.792;2024-01-30T09:50:53;9.57;;;7.22;;
57085;SDS011;42964;42.910;23.792;2024-01-30T09:55:53;13.63;;;8.90;;
57085;SDS011;42964;42.910;23.792;2024-01-30T10:00:52;13.00;;;8.80;;
57085;SDS011;42964;42.910;23.792;2024-01-30T10:05:52;14.07;;;8.63;;
57085;SDS011;42964;42.910;23.792;2024-01-30T10:10:53;13.70;;;8.57;;
57085;SDS011;42964;42.910;23.792;2024-01-30T10:15:53;12.82;;;8.75;;
57085;SDS011;42964;42.910;23.792;2024-01-30T10:20:52;10.48;;;8.48;;
57085;SDS011;42964;42.910;23.792;2024-01-30T10:25:51;11.30;;;7.32;;
57085;SDS011;42964;42.910;23.792;2024-01-30T10:30:57;15.73;;;9.00;;
57085;SDS011;42964;42.910;23.792;2024-01-30T10:36:01;11.48;;;8.45;;
57085;SDS011;42964;42.910;23.792;2024-01-30T10:41:01;13.15;;;9.38;;
57085;SDS011;42964;42.910;23.792;2024-01-30T10:46:10;8.95;;;6.20;;
57085;SDS011;42964;42.910;23.792;2024-01-30T10:51:16;12.55;;;9.25;;
57085;SDS011;42964;42.910;23.792;2024-01-30T10:56:16;10.40;;;7.80;;
57085;SDS011;42964;42.910;23.792;2024-01-30T11:01:19;13.95;;;10.55;;
57085;SDS011;42964;42.910;23.792;2024-01-30T11:06:27;10.73;;;8.45;;
57085;SDS011;42964;42.910;23.792;2024-01-30T11:11:26;13.38;;;10.82;;
57085;SDS011;42964;42.910;23.792;2024-01-30T11:16:30;12.77;;;9.98;;
57085;SDS011;42964;42.910;23.792;2024-01-30T11:21:30;14.73;;;10.82;;
57085;SDS011;42964;42.910;23.792;2024-01-30T11:26:30;11.90;;;9.73;;
57085;SDS011;42964;42.910;23.792;2024-01-30T11:31:29;10.52;;;8.75;;
57085;SDS011;42964;42.910;23.792;2024-01-30T11:36:28;17.73;;;12.45;;
57085;SDS011;42964;42.910;23.792;2024-01-30T11:41:30;26.65;;;16.02;;
57085;SDS011;42964;42.910;23.792;2024-01-30T11:46:30;18.25;;;12.55;;
57085;SDS011;42964;42.910;23.792;2024-01-30T11:51:30;18.48;;;12.57;;
57085;SDS011;42964;42.910;23.792;2024-01-30T11:56:30;16.55;;;13.98;;
57085;SDS011;42964;42.910;23.792;2024-01-30T12:01:29;15.25;;;11.60;;
57085;SDS011;42964;42.910;23.792;2024-01-30T12:06:28;16.40;;;11.57;;
57085;SDS011;42964;42.910;23.792;2024-01-30T12:11:27;16.58;;;10.57;;
57085;SDS011;42964;42.910;23.792;2024-01-30T12:16:28;16.83;;;11.98;;
57085;SDS011;42964;42.910;23.792;2024-01-30T12:21:28;14.32;;;10.98;;
57085;SDS011;42964;42.910;23.792;2024-01-30T12:26:27;19.85;;;12.00;;
57085;SDS011;42964;42.910;23.792;2024-01-30T12:31:27;13.63;;;9.65;;
57085;SDS011;42964;42.910;23.792;2024-01-30T12:36:26;13.68;;;9.73;;
57085;SDS011;42964;42.910;23.792;2024-01-30T12:41:28;16.30;;;10.77;;
57085;SDS011;42964;42.910;23.792;2024-01-30T12:46:28;16.27;;;11.07;;
57085;SDS011;42964;42.910;23.792;2024-01-30T12:51:27;14.80;;;9.50;;
57085;SDS011;42964;42.910;23.792;2024-01-30T12:56:27;14.15;;;10.13;;
57085;SDS011;42964;42.910;23.792;2024-01-30T13:01:26;11.70;;;8.07;;
57085;SDS011;42964;42.910;23.792;2024-01-30T13:06:25;13.27;;;10.23;;
57085;SDS011;42964;42.910;23.792;2024-01-30T13:11:24;15.23;;;10.75;;
57085;SDS011;42964;42.910;23.792;2024-01-30T13:16:24;10.85;;;7.63;;
57085;SDS011;42964;42.910;23.792;2024-01-30T13:21:23;12.07;;;8.68;;
57085;SDS011;42964;42.910;23.792;2024-01-30T13:26:22;20.58;;;13.23;;
57085;SDS011;42964;42.910;23.792;2024-01-30T13:31:21;12.57;;;9.65;;
57085;SDS011;42964;42.910;23.792;2024-01-30T13:36:20;12.63;;;9.80;;
57085;SDS011;42964;42.910;23.792;2024-01-30T13:41:20;10.50;;;8.18;;
57085;SDS011;42964;42.910;23.792;2024-01-30T13:46:21;12.48;;;8.60;;
57085;SDS011;42964;42.910;23.792;2024-01-30T13:51:20;13.82;;;10.35;;
57085;SDS011;42964;42.910;23.792;2024-01-30T13:56:19;10.30;;;7.38;;
57085;SDS011;42964;42.910;23.792;2024-01-30T14:01:19;22.05;;;14.38;;
57085;SDS011;42964;42.910;23.792;2024-01-30T14:06:18;20.50;;;11.57;;
57085;SDS011;42964;42.910;23.792;2024-01-30T14:11:17;16.55;;;10.65;;
57085;SDS011;42964;42.910;23.792;2024-01-30T14:16:16;12.27;;;8.90;;
57085;SDS011;42964;42.910;23.792;2024-01-30T14:21:15;14.07;;;10.50;;
57085;SDS011;42964;42.910;23.792;2024-01-30T14:26:14;16.55;;;11.05;;
57085;SDS011;42964;42.910;23.792;2024-01-30T14:31:13;21.40;;;13.15;;
57085;SDS011;42964;42.910;23.792;2024-01-30T14:36:12;11.00;;;8.52;;
57085;SDS011;42964;42.910;23.792;2024-01-30T14:41:12;26.70;;;17.92;;
57085;SDS011;42964;42.910;23.792;2024-01-30T14:46:11;22.33;;;14.30;;
57085;SDS011;42964;42.910;23.792;2024-01-30T14:51:10;14.13;;;9.63;;
57085;SDS011;42964;42.910;23.792;2024-01-30T14:56:09;23.55;;;15.07;;
57085;SDS011;42964;42.910;23.792;2024-01-30T15:01:08;31.60;;;18.92;;
57085;SDS011;42964;42.910;23.792;2024-01-30T15:06:07;36.28;;;19.55;;
57085;SDS011;42964;42.910;23.792;2024-01-30T15:11:07;28.48;;;16.10;;
57085;SDS011;42964;42.910;23.792;2024-01-30T15:16:06;23.08;;;14.23;;
57085;SDS011;42964;42.910;23.792;2024-01-30T15:21:06;23.30;;;15.02;;
57085;SDS011;42964;42.910;23.792;2024-01-30T15:26:05;25.05;;;16.00;;
57085;SDS011;42964;42.910;23.792;2024-01-30T15:36:04;28.33;;;18.83;;
57085;SDS011;42964;42.910;23.792;2024-01-30T15:41:03;25.27;;;18.88;;
57085;SDS011;42964;42.910;23.792;2024-01-30T15:46:02;32.78;;;19.65;;
57085;SDS011;42964;42.910;23.792;2024-01-30T15:51:02;39.97;;;25.50;;
57085;SDS011;42964;42.910;23.792;2024-01-30T15:56:01;52.58;;;34.53;;
57085;SDS011;42964;42.910;23.792;2024-01-30T16:01:00;47.25;;;29.73;;
57085;SDS011;42964;42.910;23.792;2024-01-30T16:05:59;52.63;;;33.95;;
57085;SDS011;42964;42.910;23.792;2024-01-30T16:10:58;48.65;;;32.53;;
57085;SDS011;42964;42.910;23.792;2024-01-30T16:15:57;50.22;;;30.52;;
57085;SDS011;42964;42.910;23.792;2024-01-30T16:20:56;49.95;;;31.13;;
57085;SDS011;42964;42.910;23.792;2024-01-30T16:25:56;54.83;;;28.75;;
57085;SDS011;42964;42.910;23.792;2024-01-30T16:30:56;49.45;;;29.20;;
57085;SDS011;42964;42.910;23.792;2024-01-30T16:35:56;49.05;;;30.40;;
57085;SDS011;42964;42.910;23.792;2024-01-30T16:40:55;78.75;;;44.38;;
57085;SDS011;42964;42.910;23.792;2024-01-30T16:45:54;94.50;;;54.55;;
57085;SDS011;42964;42.910;23.792;2024-01-30T16:50:53;105.00;;;55.50;;
57085;SDS011;42964;42.910;23.792;2024-01-30T16:55:52;91.05;;;54.33;;
57085;SDS011;42964;42.910;23.792;2024-01-30T17:00:51;80.40;;;42.63;;
57085;SDS011;42964;42.910;23.792;2024-01-30T17:05:50;62.30;;;36.05;;
57085;SDS011;42964;42.910;23.792;2024-01-30T17:10:52;75.38;;;44.15;;
57085;SDS011;42964;42.910;23.792;2024-01-30T17:15:51;56.05;;;34.30;;
57085;SDS011;42964;42.910;23.792;2024-01-30T17:20:50;61.13;;;38.25;;
57085;SDS011;42964;42.910;23.792;2024-01-30T17:30:48;43.55;;;26.63;;
57085;SDS011;42964;42.910;23.792;2024-01-30T17:35:47;58.50;;;36.28;;
57085;SDS011;42964;42.910;23.792;2024-01-30T17:40:46;62.20;;;37.65;;
57085;SDS011;42964;42.910;23.792;2024-01-30T17:50:44;110.60;;;65.10;;
57085;SDS011;42964;42.910;23.792;2024-01-30T17:55:43;94.45;;;53.42;;
57085;SDS011;42964;42.910;23.792;2024-01-30T18:00:43;77.80;;;43.58;;
57085;SDS011;42964;42.910;23.792;2024-01-30T18:05:42;61.88;;;35.15;;
57085;SDS011;42964;42.910;23.792;2024-01-30T18:15:40;58.17;;;30.05;;
57085;SDS011;42964;42.910;23.792;2024-01-30T18:20:39;56.00;;;31.90;;
57085;SDS011;42964;42.910;23.792;2024-01-30T18:25:38;50.55;;;31.50;;
57085;SDS011;42964;42.910;23.792;2024-01-30T18:30:37;50.63;;;31.85;;
57085;SDS011;42964;42.910;23.792;2024-01-30T18:35:36;57.35;;;35.90;;
57085;SDS011;42964;42.910;23.792;2024-01-30T18:40:35;83.70;;;50.10;;
57085;SDS011;42964;42.910;23.792;2024-01-30T18:45:34;75.40;;;45.90;;
57085;SDS011;42964;42.910;23.792;2024-01-30T18:55:32;75.28;;;42.80;;
57085;SDS011;42964;42.910;23.792;2024-01-30T19:00:34;72.78;;;44.53;;
57085;SDS011;42964;42.910;23.792;2024-01-30T19:05:34;54.38;;;33.53;;
57085;SDS011;42964;42.910;23.792;2024-01-30T19:10:34;53.35;;;32.28;;
57085;SDS011;42964;42.910;23.792;2024-01-30T19:15:34;51.63;;;32.25;;
57085;SDS011;42964;42.910;23.792;2024-01-30T19:20:33;61.42;;;36.65;;
57085;SDS011;42964;42.910;23.792;2024-01-30T19:25:32;114.70;;;65.32;;
57085;SDS011;42964;42.910;23.792;2024-01-30T19:30:31;128.38;;;71.65;;
57085;SDS011;42964;42.910;23.792;2024-01-30T19:35:30;108.32;;;60.25;;
57085;SDS011;42964;42.910;23.792;2024-01-30T19:40:29;110.13;;;63.08;;
57085;SDS011;42964;42.910;23.792;2024-01-30T19:45:28;106.50;;;60.00;;
57085;SDS011;42964;42.910;23.792;2024-01-30T19:50:27;98.32;;;57.63;;
57085;SDS011;42964;42.910;23.792;2024-01-30T20:00:25;91.03;;;55.72;;
57085;SDS011;42964;42.910;23.792;2024-01-30T20:05:24;95.78;;;58.25;;
57085;SDS011;42964;42.910;23.792;2024-01-30T20:10:23;119.55;;;68.28;;
57085;SDS011;42964;42.910;23.792;2024-01-30T20:15:22;143.15;;;83.30;;
57085;SDS011;42964;42.910;23.792;2024-01-30T20:20:21;141.02;;;78.68;;
57085;SDS011;42964;42.910;23.792;2024-01-30T20:25:21;148.50;;;83.25;;
57085;SDS011;42964;42.910;23.792;2024-01-30T20:30:20;177.55;;;95.28;;
57085;SDS011;42964;42.910;23.792;2024-01-30T20:35:20;290.02;;;139.30;;
57085;SDS011;42964;42.910;23.792;2024-01-30T20:40:19;295.05;;;144.50;;
57085;SDS011;42964;42.910;23.792;2024-01-30T20:50:18;295.20;;;138.10;;
57085;SDS011;42964;42.910;23.792;2024-01-30T20:55:17;253.77;;;119.60;;
57085;SDS011;42964;42.910;23.792;2024-01-30T21:00:16;203.60;;;107.78;;
57085;SDS011;42964;42.910;23.792;2024-01-30T21:05:15;146.10;;;76.30;;
57085;SDS011;42964;42.910;23.792;2024-01-30T21:10:17;97.82;;;51.95;;
57085;SDS011;42964;42.910;23.792;2024-01-30T21:20:16;99.78;;;50.75;;
57085;SDS011;42964;42.910;23.792;2024-01-30T21:30:13;131.85;;;70.22;;
57085;SDS011;42964;42.910;23.792;2024-01-30T21:35:13;180.52;;;95.97;;
57085;SDS011;42964;42.910;23.792;2024-01-30T21:45:13;165.55;;;85.95;;
57085;SDS011;42964;42.910;23.792;2024-01-30T21:55:11;180.30;;;94.10;;
57085;SDS011;42964;42.910;23.792;2024-01-30T22:00:10;159.07;;;84.65;;
57085;SDS011;42964;42.910;23.792;2024-01-30T22:05:09;146.63;;;79.88;;
57085;SDS011;42964;42.910;23.792;2024-01-30T22:10:08;115.65;;;59.67;;
57085;SDS011;42964;42.910;23.792;2024-01-30T22:15:08;110.32;;;55.13;;
57085;SDS011;42964;42.910;23.792;2024-01-30T22:20:07;130.02;;;68.05;;
57085;SDS011;42964;42.910;23.792;2024-01-30T22:25:07;103.22;;;52.97;;
57085;SDS011;42964;42.910;23.792;2024-01-30T22:30:09;72.88;;;41.20;;
57085;SDS011;42964;42.910;23.792;2024-01-30T22:35:09;53.10;;;30.25;;
57085;SDS011;42964;42.910;23.792;2024-01-30T22:40:10;60.55;;;33.53;;
57085;SDS011;42964;42.910;23.792;2024-01-30T22:45:09;50.83;;;30.80;;
57085;SDS011;42964;42.910;23.792;2024-01-30T22:50:08;46.10;;;26.38;;
57085;SDS011;42964;42.910;23.792;2024-01-30T22:55:07;44.70;;;25.42;;
57085;SDS011;42964;42.910;23.792;2024-01-30T23:00:06;56.08;;;30.17;;
57085;SDS011;42964;42.910;23.792;2024-01-30T23:05:20;62.38;;;35.63;;
57085;SDS011;42964;42.910;23.792;2024-01-30T23:15:18;60.27;;;36.63;;
57085;SDS011;42964;42.910;23.792;2024-01-30T23:20:16;58.22;;;32.80;;
57085;SDS011;42964;42.910;23.792;2024-01-30T23:25:16;56.88;;;31.15;;
57085;SDS011;42964;42.910;23.792;2024-01-30T23:30:15;57.72;;;30.75;;
57085;SDS011;42964;42.910;23.792;2024-01-30T23:35:14;97.25;;;48.88;;
57085;SDS011;42964;42.910;23.792;2024-01-30T23:45:12;72.40;;;37.93;;
57085;SDS011;42964;42.910;23.792;2024-01-30T23:55:11;50.20;;;25.70;;
